AirNav   TITAN Aviation Fuels
 
 524 users online  

05AL Allen Stagefield Army Heliport
Fort Rucker/Wicksburg, Alabama, USA

GOING TO FORT RUCKER/WICKSBURG?


FAA INFORMATION EFFECTIVE 08 SEPTEMBER 2022

Location

FAA Identifier: 05AL
Lat/Long: 31-13-52.2300N 085-38-58.9300W
31-13.870500N 085-38.982167W
31.2311750,-85.6497028
(estimated)
Elevation: 365 ft. / 111 m (estimated)
Variation: 02W (2000)
From city: 2 miles N of central business district of the associated city
Time zone: UTC -5 (UTC -6 during Standard Time)
Zip code: 36352

Heliport Operations

Heliport use: Private use. Permission required prior to landing
Activation date: 05/2002
Control tower: no
ARTCC: JACKSONVILLE CENTER
FSS: ANNISTON FLIGHT SERVICE STATION
NOTAMs facility: OZR (NOTAM-D service available)
Attendance: ATTENDED DURG SKED TRNG.
FOR TRNG DAYS/HRS CTC AT&T OFFICER AT 334-255-9464.
Segmented circle: no

Heliport Communications

OPS: 126.2
WX ASOS at DHN (12 nm NE): PHONE 334-983-5999
WX AWOS-3PT at EDN (13 nm W): 118.9 (334-347-3524)
WX AWOS-3PT at HDL (19 nm NE): 119.575 (334-693-0508)

Nearby radio navigation aids

VOR radial/distance  VOR name  Freq  Var
OZRr123/4.5CAIRNS VOR/DME111.2003W
HEYr182/(8.6)HANCHEY VOR110.6003W
RRSr252/11.7WIREGRASS VORTAC111.6002E
EDNr110/(13.6)ENTERPRISE VOR116.6003W
MAIr315/38.0MARIANNA VORTAC114.0000E

 
NDB name  Hdg/Dist  Freq  Var  ID
RUCKR091/8.521203WOZ --- --..
HANCHEY182/8.722103WHYE .... -.-- .
LOWE151/9.226903WLOR .-.. --- .-.
BOLL WEEVIL114/18.235203WBVG -... ...- --.
SOYYA317/30.732902WSMY ... -- -.--
JUDD099/38.326402WJUY .--- ..- -.--

Heliport Services

Runway Information

Helipad H1

Dimensions: 1600 x 50 ft. / 488 x 15 m
Surface: asphalt
Traffic pattern: leftleft

Helipad H2

Dimensions: 1600 x 50 ft. / 488 x 15 m
Surface: asphalt
Traffic pattern: leftleft

Helipad H3

Dimensions: 1600 x 50 ft. / 488 x 15 m
Surface: asphalt
Traffic pattern: leftleft

Helipad H4

Dimensions: 1600 x 50 ft. / 488 x 15 m
Surface: asphalt
Traffic pattern: leftleft

Helipad H5

Dimensions: 1600 x 50 ft. / 488 x 15 m
Surface: asphalt
Traffic pattern: leftleft

Helipad H6

Dimensions: 1600 x 50 ft. / 488 x 15 m
Surface: asphalt
Traffic pattern: leftleft

Heliport Ownership and Management from official FAA records

Ownership: U.S. Army
Owner: US ARMY AVIATION CTNR OF EXCELLENCE
453 NOVOSEL STREET., BLDG. 101
FORT RUCKER, AL 36362
Phone 334-255-9764
& FORT RUCKER
Manager: JACK A HOLMES
USAACE G3 AIR, BLDG 101 DPTMS AIRFIELD DIVISION
FORT RUCKER, AL 36362
Phone 334-255-9764

Additional Remarks

FOR CD CTC CAIRNS APCH AT 334-255-8402 OR 334-255-8460, WHEN APCH CLSD CTC JACKSONVILLE ARTCC AT 904-845-1592.

Instrument Procedures

There are no published instrument procedures at 05AL.

Some nearby airports with instrument procedures:

KOZR - Cairns Army Airfield (Fort Rucker) (4 nm NW)
KHEY - Hanchey Army Heliport (Fort Rucker) (7 nm N)
KLOR - Lowe Army Heliport (Fort Rucker) (9 nm NW)
KDHN - Dothan Regional Airport (12 nm NE)
71J - Ozark/Blackwell Field Airport (12 nm N)
KEDN - Enterprise Municipal Airport (13 nm W)
33J - Geneva Municipal Airport (16 nm SW)
KHDL - Headland Municipal Airport (19 nm NE)
 
Loc | Ops | Rwys | IFR | FBO | Links
Com | Nav | Svcs | Stats | Notes
Area around 05AL (Allen Stagefield Army Heliport)
 
Road maps at: MapQuest Bing Google
 
Aerial photo
No photo
 
Sectional chart

 
Airport distance calculator
Flying to Allen Stagefield Army Heliport? Find the distance to fly.

From to 05AL

Sunrise and sunset
Times for 01-Oct-2022
 Local
(UTC-5)
 Zulu
(UTC)
Morning civil twilight06:1311:13
Sunrise06:3711:37
Sunset18:2723:27
Evening civil twilight18:5123:51

Current date and time
Zulu (UTC)  02-Oct-2022 04:56:36
Local (UTC-5)  01-Oct-2022 23:56:36
 
METAR
KOZR 
5nm NW 
020355Z AUTO 31006KT 10SM CLR 18/06 A2994 RMK AO2 SLP139 T01800059 $
KHEY 
7nm N 
020355Z AUTO 33005KT 9SM CLR 18/08 A2992 RMK AO2 SLP132 T01790082
KLOR 
9nm NW 
020355Z AUTO 00000KT 10SM CLR 13/10 A2995 RMK AO2 SLP125 T01250102 $
KDHN 
11nm NE 
020353Z AUTO 32004KT 10SM CLR 18/06 A2998 RMK AO2 SLP148 T01780061
KSXS 
13nm NW 
020355Z AUTO 35004KT 10SM CLR 19/06 A2994 RMK AO2 SLP138 T01930061 TSNO $
KEDN 
13nm W 
020435Z AUTO 35005KT 10SM CLR 16/08 A2995 RMK AO2 T01640084
KHDL 
19nm NE 
020435Z AUTO 32004KT 10SM CLR 16/08 A2995 RMK AO2 TSNO
TAF
KDHN 
11nm NE 
011722Z 0118/0218 31010KT P6SM SKC FM020200 VRB03KT P6SM SKC FM021400 34007KT P6SM SKC
NOTAMs
Click for the latest NOTAMs
NOTAMs are issued by the DoD/FAA and will open in a separate window not controlled by AirNav.

 

 
 

Would you like to see your business listed on this page?

 If your business provides an interesting product or service to pilots, flight crews, aircraft, or users of the Allen Stagefield Army Heliport, you should consider listing it here.  To start the listing process, click on the button below
 
Add a business
 

Other Pages about Allen Stagefield Army Heliport

Update a link
 
Copyright © AirNav, LLC. All rights reserved. Privacy Policy  Contact